Allenstown, New Hampshire
Current Conditions -  °F | °C
As of 12:39 AM on Tuesday 27 Jan 2015 (Local Time) from KCON Reporting Station
Light Snow Light Snow  
Wind Chill:   Ceiling: 3100
Heat Index: 14°   Visibility: 3mi
Dew Point:   Wind: 12mph
Humidity: 67%   Direction: 360°N
Pressure: 29.92"   Gusts: NA
Location:  43.1606°N, 71.4143°W
Report Text: KCON 270539Z AUTO 36010KT 3SM -SN OVC031 M10/M15 A2992 RMK AO2 P0001 T11001150
Loading
Personal Weather Stations






























Interactive Weather Map New forecast layout! Learn more

10-Day Weather Forecast

Advertisements
Track Severe Weather on mobile